sensor_id;sensor_type;location;lat;lon;timestamp;pressure;altitude;pressure_sealevel;temperature;humidity
3250;BME280;1637;42.020;23.992;2022-10-16T00:00:21;93454.13;;;6.53;100.00
3250;BME280;1637;42.020;23.992;2022-10-16T00:02:48;93449.38;;;6.39;100.00
3250;BME280;1637;42.020;23.992;2022-10-16T00:05:15;93450.03;;;6.33;100.00
3250;BME280;1637;42.020;23.992;2022-10-16T00:07:42;93450.41;;;6.31;100.00
3250;BME280;1637;42.020;23.992;2022-10-16T00:10:08;93452.50;;;6.18;100.00
3250;BME280;1637;42.020;23.992;2022-10-16T00:12:35;93462.09;;;6.00;100.00
3250;BME280;1637;42.020;23.992;2022-10-16T00:15:02;93456.63;;;5.93;100.00
3250;BME280;1637;42.020;23.992;2022-10-16T00:17:31;93472.94;;;6.14;100.00
3250;BME280;1637;42.020;23.992;2022-10-16T00:19:58;93461.25;;;5.96;100.00
3250;BME280;1637;42.020;23.992;2022-10-16T00:22:24;93464.75;;;6.00;100.00
3250;BME280;1637;42.020;23.992;2022-10-16T00:24:51;93456.56;;;6.12;100.00
3250;BME280;1637;42.020;23.992;2022-10-16T00:27:18;93458.31;;;6.01;100.00
3250;BME280;1637;42.020;23.992;2022-10-16T00:29:49;93451.72;;;6.18;100.00
3250;BME280;1637;42.020;23.992;2022-10-16T00:32:16;93458.66;;;6.26;100.00
3250;BME280;1637;42.020;23.992;2022-10-16T00:34:44;93455.16;;;6.18;100.00
3250;BME280;1637;42.020;23.992;2022-10-16T00:37:12;93455.25;;;6.26;100.00
3250;BME280;1637;42.020;23.992;2022-10-16T00:39:39;93452.56;;;6.22;100.00
3250;BME280;1637;42.020;23.992;2022-10-16T00:42:06;93455.00;;;6.34;100.00
3250;BME280;1637;42.020;23.992;2022-10-16T00:44:45;93460.81;;;6.17;100.00
3250;BME280;1637;42.020;23.992;2022-10-16T00:47:18;93454.38;;;6.18;100.00
3250;BME280;1637;42.020;23.992;2022-10-16T00:49:47;93464.47;;;6.09;100.00
3250;BME280;1637;42.020;23.992;2022-10-16T00:52:16;93471.16;;;6.22;100.00
3250;BME280;1637;42.020;23.992;2022-10-16T00:54:45;93471.22;;;6.03;100.00
3250;BME280;1637;42.020;23.992;2022-10-16T00:57:12;93476.59;;;6.06;100.00
3250;BME280;1637;42.020;23.992;2022-10-16T00:59:41;93478.25;;;6.14;100.00
3250;BME280;1637;42.020;23.992;2022-10-16T01:02:09;93446.72;;;5.90;100.00
3250;BME280;1637;42.020;23.992;2022-10-16T01:04:38;93472.88;;;6.11;100.00
3250;BME280;1637;42.020;23.992;2022-10-16T01:07:12;93477.63;;;5.79;100.00
3250;BME280;1637;42.020;23.992;2022-10-16T01:09:47;93477.28;;;5.80;100.00
3250;BME280;1637;42.020;23.992;2022-10-16T01:12:22;93486.03;;;6.04;100.00
3250;BME280;1637;42.020;23.992;2022-10-16T01:14:56;93484.00;;;5.94;100.00
3250;BME280;1637;42.020;23.992;2022-10-16T01:17:28;93496.59;;;5.77;100.00
3250;BME280;1637;42.020;23.992;2022-10-16T01:20:08;93497.22;;;5.90;100.00
3250;BME280;1637;42.020;23.992;2022-10-16T01:22:48;93476.75;;;5.71;100.00
3250;BME280;1637;42.020;23.992;2022-10-16T01:25:22;93508.41;;;5.80;100.00
3250;BME280;1637;42.020;23.992;2022-10-16T01:27:53;93479.59;;;5.63;100.00
3250;BME280;1637;42.020;23.992;2022-10-16T01:30:23;93481.34;;;5.74;100.00
3250;BME280;1637;42.020;23.992;2022-10-16T01:32:55;93490.19;;;5.82;100.00
3250;BME280;1637;42.020;23.992;2022-10-16T01:35:25;93500.47;;;5.83;100.00
3250;BME280;1637;42.020;23.992;2022-10-16T01:37:57;93474.63;;;5.80;100.00
3250;BME280;1637;42.020;23.992;2022-10-16T01:40:27;93495.88;;;6.00;100.00
3250;BME280;1637;42.020;23.992;2022-10-16T01:42:59;93502.19;;;5.92;100.00
3250;BME280;1637;42.020;23.992;2022-10-16T01:45:28;93503.88;;;6.03;100.00
3250;BME280;1637;42.020;23.992;2022-10-16T01:47:56;93499.94;;;5.94;100.00
3250;BME280;1637;42.020;23.992;2022-10-16T01:50:25;93502.53;;;5.90;100.00
3250;BME280;1637;42.020;23.992;2022-10-16T01:52:54;93501.22;;;5.80;100.00
3250;BME280;1637;42.020;23.992;2022-10-16T01:55:25;93501.56;;;5.98;100.00
3250;BME280;1637;42.020;23.992;2022-10-16T01:57:57;93510.16;;;6.14;100.00
3250;BME280;1637;42.020;23.992;2022-10-16T02:00:26;93529.06;;;6.09;100.00
3250;BME280;1637;42.020;23.992;2022-10-16T02:02:53;93501.06;;;6.15;100.00
3250;BME280;1637;42.020;23.992;2022-10-16T02:05:25;93499.88;;;6.13;100.00
3250;BME280;1637;42.020;23.992;2022-10-16T02:07:53;93508.03;;;6.24;100.00
3250;BME280;1637;42.020;23.992;2022-10-16T02:10:20;93504.78;;;6.11;100.00
3250;BME280;1637;42.020;23.992;2022-10-16T02:12:50;93516.78;;;6.01;100.00
3250;BME280;1637;42.020;23.992;2022-10-16T02:15:21;93504.63;;;6.00;100.00
3250;BME280;1637;42.020;23.992;2022-10-16T02:17:48;93503.47;;;5.59;100.00
3250;BME280;1637;42.020;23.992;2022-10-16T02:20:15;93507.28;;;5.62;100.00
3250;BME280;1637;42.020;23.992;2022-10-16T02:22:44;93502.31;;;5.37;100.00
3250;BME280;1637;42.020;23.992;2022-10-16T02:25:17;93504.19;;;5.37;100.00
3250;BME280;1637;42.020;23.992;2022-10-16T02:27:47;93499.31;;;5.39;100.00
3250;BME280;1637;42.020;23.992;2022-10-16T02:30:24;93504.03;;;5.30;100.00
3250;BME280;1637;42.020;23.992;2022-10-16T02:32:53;93502.56;;;5.32;100.00
3250;BME280;1637;42.020;23.992;2022-10-16T02:35:23;93503.81;;;5.00;100.00
3250;BME280;1637;42.020;23.992;2022-10-16T02:37:50;93506.41;;;4.96;100.00
3250;BME280;1637;42.020;23.992;2022-10-16T02:40:18;93508.97;;;4.93;100.00
3250;BME280;1637;42.020;23.992;2022-10-16T02:42:50;93516.06;;;4.69;100.00
3250;BME280;1637;42.020;23.992;2022-10-16T02:45:17;93517.06;;;5.00;100.00
3250;BME280;1637;42.020;23.992;2022-10-16T02:47:46;93509.84;;;4.81;100.00
3250;BME280;1637;42.020;23.992;2022-10-16T02:50:13;93519.28;;;4.78;100.00
3250;BME280;1637;42.020;23.992;2022-10-16T02:52:40;93522.56;;;4.72;100.00
3250;BME280;1637;42.020;23.992;2022-10-16T02:55:07;93522.31;;;4.77;100.00
3250;BME280;1637;42.020;23.992;2022-10-16T02:57:34;93523.56;;;4.83;100.00
3250;BME280;1637;42.020;23.992;2022-10-16T03:00:03;93523.56;;;5.18;100.00
3250;BME280;1637;42.020;23.992;2022-10-16T03:02:30;93528.97;;;5.25;100.00
3250;BME280;1637;42.020;23.992;2022-10-16T03:04:58;93535.97;;;5.14;100.00
3250;BME280;1637;42.020;23.992;2022-10-16T03:07:25;93532.88;;;4.93;100.00
3250;BME280;1637;42.020;23.992;2022-10-16T03:09:52;93540.34;;;5.06;100.00
3250;BME280;1637;42.020;23.992;2022-10-16T03:12:19;93538.44;;;4.88;100.00
3250;BME280;1637;42.020;23.992;2022-10-16T03:14:47;93543.09;;;5.10;100.00
3250;BME280;1637;42.020;23.992;2022-10-16T03:17:13;93535.41;;;5.05;100.00
3250;BME280;1637;42.020;23.992;2022-10-16T03:19:42;93543.59;;;5.15;100.00
3250;BME280;1637;42.020;23.992;2022-10-16T03:22:10;93560.47;;;5.07;100.00
3250;BME280;1637;42.020;23.992;2022-10-16T03:24:37;93544.56;;;5.07;100.00
3250;BME280;1637;42.020;23.992;2022-10-16T03:27:04;93545.56;;;5.18;100.00
3250;BME280;1637;42.020;23.992;2022-10-16T03:29:31;93550.38;;;5.13;100.00
3250;BME280;1637;42.020;23.992;2022-10-16T03:31:58;93542.75;;;4.76;100.00
3250;BME280;1637;42.020;23.992;2022-10-16T03:34:25;93552.00;;;5.02;100.00
3250;BME280;1637;42.020;23.992;2022-10-16T03:36:52;93553.63;;;5.06;100.00
3250;BME280;1637;42.020;23.992;2022-10-16T03:39:20;93548.16;;;4.64;100.00
3250;BME280;1637;42.020;23.992;2022-10-16T03:41:47;93544.66;;;4.60;100.00
3250;BME280;1637;42.020;23.992;2022-10-16T03:44:14;93541.16;;;4.25;100.00
3250;BME280;1637;42.020;23.992;2022-10-16T03:46:41;93550.13;;;4.04;100.00
3250;BME280;1637;42.020;23.992;2022-10-16T03:49:08;93547.28;;;3.97;100.00
3250;BME280;1637;42.020;23.992;2022-10-16T03:51:34;93548.59;;;4.19;100.00
3250;BME280;1637;42.020;23.992;2022-10-16T03:54:01;93549.03;;;4.05;100.00
3250;BME280;1637;42.020;23.992;2022-10-16T03:56:30;93555.59;;;3.96;100.00
3250;BME280;1637;42.020;23.992;2022-10-16T03:58:56;93549.13;;;4.09;100.00
3250;BME280;1637;42.020;23.992;2022-10-16T04:01:23;93552.78;;;4.04;100.00
3250;BME280;1637;42.020;23.992;2022-10-16T04:03:50;93552.28;;;4.46;100.00
3250;BME280;1637;42.020;23.992;2022-10-16T04:06:17;93542.63;;;4.06;100.00
3250;BME280;1637;42.020;23.992;2022-10-16T04:08:44;93543.03;;;3.93;100.00
3250;BME280;1637;42.020;23.992;2022-10-16T04:11:11;93546.84;;;3.79;100.00
3250;BME280;1637;42.020;23.992;2022-10-16T04:13:39;93540.06;;;3.66;100.00
3250;BME280;1637;42.020;23.992;2022-10-16T04:16:06;93547.00;;;3.71;100.00
3250;BME280;1637;42.020;23.992;2022-10-16T04:18:33;93540.28;;;3.73;100.00
3250;BME280;1637;42.020;23.992;2022-10-16T04:21:02;93541.41;;;3.88;100.00
3250;BME280;1637;42.020;23.992;2022-10-16T04:23:29;93542.59;;;3.91;100.00
3250;BME280;1637;42.020;23.992;2022-10-16T04:25:56;93539.22;;;3.78;100.00
3250;BME280;1637;42.020;23.992;2022-10-16T04:28:23;93545.38;;;3.38;100.00
3250;BME280;1637;42.020;23.992;2022-10-16T04:30:51;93554.44;;;3.65;100.00
3250;BME280;1637;42.020;23.992;2022-10-16T04:33:18;93548.00;;;3.94;100.00
3250;BME280;1637;42.020;23.992;2022-10-16T04:35:44;93542.91;;;3.73;100.00
3250;BME280;1637;42.020;23.992;2022-10-16T04:38:11;93549.88;;;3.50;100.00
3250;BME280;1637;42.020;23.992;2022-10-16T04:40:38;93559.69;;;3.50;100.00
3250;BME280;1637;42.020;23.992;2022-10-16T04:43:05;93557.28;;;3.72;100.00
3250;BME280;1637;42.020;23.992;2022-10-16T04:45:32;93559.59;;;3.34;100.00
3250;BME280;1637;42.020;23.992;2022-10-16T04:48:00;93564.97;;;3.50;100.00
3250;BME280;1637;42.020;23.992;2022-10-16T04:50:27;93559.00;;;3.53;100.00
3250;BME280;1637;42.020;23.992;2022-10-16T04:52:54;93557.75;;;3.62;100.00
3250;BME280;1637;42.020;23.992;2022-10-16T04:55:21;93556.75;;;5.66;100.00
3250;BME280;1637;42.020;23.992;2022-10-16T04:57:47;93564.53;;;5.94;100.00
3250;BME280;1637;42.020;23.992;2022-10-16T05:00:15;93571.44;;;5.06;100.00
3250;BME280;1637;42.020;23.992;2022-10-16T05:02:42;93570.66;;;4.39;100.00
3250;BME280;1637;42.020;23.992;2022-10-16T05:05:10;93575.03;;;4.47;100.00
3250;BME280;1637;42.020;23.992;2022-10-16T05:07:37;93586.03;;;4.80;100.00
3250;BME280;1637;42.020;23.992;2022-10-16T05:10:04;93588.41;;;5.36;96.81
3250;BME280;1637;42.020;23.992;2022-10-16T05:12:31;93593.03;;;5.39;94.60
3250;BME280;1637;42.020;23.992;2022-10-16T05:14:58;93596.25;;;5.87;91.90
3250;BME280;1637;42.020;23.992;2022-10-16T05:17:25;93603.78;;;6.24;89.54
3250;BME280;1637;42.020;23.992;2022-10-16T05:19:52;93606.38;;;5.97;91.20
3250;BME280;1637;42.020;23.992;2022-10-16T05:22:20;93603.75;;;6.66;88.26
3250;BME280;1637;42.020;23.992;2022-10-16T05:24:47;93612.28;;;7.24;84.57
3250;BME280;1637;42.020;23.992;2022-10-16T05:27:14;93612.88;;;7.70;81.89
3250;BME280;1637;42.020;23.992;2022-10-16T05:29:44;93623.47;;;8.64;77.14
3250;BME280;1637;42.020;23.992;2022-10-16T05:32:12;93624.09;;;8.94;75.09
3250;BME280;1637;42.020;23.992;2022-10-16T05:34:39;93624.22;;;9.67;71.53
3250;BME280;1637;42.020;23.992;2022-10-16T05:37:06;93636.31;;;9.46;70.76
3250;BME280;1637;42.020;23.992;2022-10-16T05:39:34;93632.94;;;9.56;71.60
3250;BME280;1637;42.020;23.992;2022-10-16T05:42:02;93631.13;;;9.75;69.93
3250;BME280;1637;42.020;23.992;2022-10-16T05:44:29;93640.84;;;10.08;69.31
3250;BME280;1637;42.020;23.992;2022-10-16T05:46:55;93642.06;;;10.24;68.86
3250;BME280;1637;42.020;23.992;2022-10-16T05:49:22;93646.78;;;10.66;68.00
3250;BME280;1637;42.020;23.992;2022-10-16T05:51:49;93645.28;;;10.83;67.60
3250;BME280;1637;42.020;23.992;2022-10-16T05:54:16;93644.75;;;10.24;69.51
3250;BME280;1637;42.020;23.992;2022-10-16T05:56:44;93652.56;;;10.86;67.63
3250;BME280;1637;42.020;23.992;2022-10-16T05:59:11;93655.63;;;10.92;67.59
3250;BME280;1637;42.020;23.992;2022-10-16T06:01:38;93662.19;;;11.19;66.71
3250;BME280;1637;42.020;23.992;2022-10-16T06:04:04;93663.69;;;11.10;67.06
3250;BME280;1637;42.020;23.992;2022-10-16T06:06:31;93659.47;;;11.12;67.53
3250;BME280;1637;42.020;23.992;2022-10-16T06:08:58;93604.31;;;10.68;67.49
3250;BME280;1637;42.020;23.992;2022-10-16T06:11:27;93665.59;;;11.02;68.45
3250;BME280;1637;42.020;23.992;2022-10-16T06:13:58;93662.69;;;10.17;71.79
3250;BME280;1637;42.020;23.992;2022-10-16T06:16:27;93662.19;;;9.32;74.27
3250;BME280;1637;42.020;23.992;2022-10-16T06:18:55;93656.97;;;8.57;78.10
3250;BME280;1637;42.020;23.992;2022-10-16T06:21:24;93661.31;;;8.36;80.14
3250;BME280;1637;42.020;23.992;2022-10-16T06:23:52;93660.19;;;7.77;84.27
3250;BME280;1637;42.020;23.992;2022-10-16T06:26:21;93658.84;;;7.34;87.52
3250;BME280;1637;42.020;23.992;2022-10-16T06:28:48;93659.53;;;7.31;89.66
3250;BME280;1637;42.020;23.992;2022-10-16T06:31:17;93661.59;;;7.97;87.74
3250;BME280;1637;42.020;23.992;2022-10-16T06:33:44;93662.94;;;8.44;85.98
3250;BME280;1637;42.020;23.992;2022-10-16T06:36:13;93662.78;;;9.65;81.73
3250;BME280;1637;42.020;23.992;2022-10-16T06:38:41;93675.41;;;10.41;77.71
3250;BME280;1637;42.020;23.992;2022-10-16T06:41:11;93675.56;;;11.76;72.30
3250;BME280;1637;42.020;23.992;2022-10-16T06:43:39;93665.72;;;13.26;67.14
3250;BME280;1637;42.020;23.992;2022-10-16T06:46:08;93677.47;;;14.25;63.09
3250;BME280;1637;42.020;23.992;2022-10-16T06:48:37;93683.03;;;14.11;64.01
3250;BME280;1637;42.020;23.992;2022-10-16T06:51:06;93690.38;;;14.44;62.90
3250;BME280;1637;42.020;23.992;2022-10-16T06:53:34;93677.63;;;14.11;62.96
3250;BME280;1637;42.020;23.992;2022-10-16T06:56:07;93687.50;;;14.89;61.23
3250;BME280;1637;42.020;23.992;2022-10-16T06:58:34;93685.56;;;14.25;62.05
3250;BME280;1637;42.020;23.992;2022-10-16T07:01:00;93698.41;;;15.36;59.69
3250;BME280;1637;42.020;23.992;2022-10-16T07:03:27;93696.88;;;15.62;58.99
3250;BME280;1637;42.020;23.992;2022-10-16T07:05:55;93695.06;;;16.22;57.13
3250;BME280;1637;42.020;23.992;2022-10-16T07:08:22;93699.81;;;15.44;59.26
3250;BME280;1637;42.020;23.992;2022-10-16T07:10:58;93700.56;;;16.18;58.08
3250;BME280;1637;42.020;23.992;2022-10-16T07:13:25;93701.44;;;16.74;55.26
3250;BME280;1637;42.020;23.992;2022-10-16T07:15:52;93703.44;;;16.90;55.13
3250;BME280;1637;42.020;23.992;2022-10-16T07:18:18;93709.44;;;17.34;54.24
3250;BME280;1637;42.020;23.992;2022-10-16T07:20:45;93713.22;;;16.84;55.85
3250;BME280;1637;42.020;23.992;2022-10-16T07:23:14;93710.28;;;17.14;55.47
3250;BME280;1637;42.020;23.992;2022-10-16T07:25:40;93709.69;;;17.75;54.73
3250;BME280;1637;42.020;23.992;2022-10-16T07:28:07;93713.41;;;17.81;53.10
3250;BME280;1637;42.020;23.992;2022-10-16T07:30:35;93714.16;;;17.98;51.94
3250;BME280;1637;42.020;23.992;2022-10-16T07:33:02;93703.72;;;16.96;56.08
3250;BME280;1637;42.020;23.992;2022-10-16T07:35:29;93713.78;;;17.47;55.15
3250;BME280;1637;42.020;23.992;2022-10-16T07:37:56;93718.22;;;17.90;51.93
3250;BME280;1637;42.020;23.992;2022-10-16T07:40:24;93707.22;;;18.71;51.52
3250;BME280;1637;42.020;23.992;2022-10-16T07:42:52;93737.13;;;18.84;51.33
3250;BME280;1637;42.020;23.992;2022-10-16T07:45:19;93709.59;;;18.40;51.63
3250;BME280;1637;42.020;23.992;2022-10-16T07:47:46;93707.56;;;18.44;52.57
3250;BME280;1637;42.020;23.992;2022-10-16T07:50:13;93709.44;;;18.31;51.92
3250;BME280;1637;42.020;23.992;2022-10-16T07:52:40;93702.56;;;18.72;52.94
3250;BME280;1637;42.020;23.992;2022-10-16T07:55:08;93709.53;;;19.78;49.62
3250;BME280;1637;42.020;23.992;2022-10-16T07:57:36;93708.66;;;18.76;52.63
3250;BME280;1637;42.020;23.992;2022-10-16T08:00:03;93706.16;;;19.23;52.08
3250;BME280;1637;42.020;23.992;2022-10-16T08:02:31;93708.41;;;20.01;50.37
3250;BME280;1637;42.020;23.992;2022-10-16T08:04:58;93717.88;;;20.09;50.13
3250;BME280;1637;42.020;23.992;2022-10-16T08:07:24;93707.69;;;19.49;51.91
3250;BME280;1637;42.020;23.992;2022-10-16T08:09:51;93692.09;;;18.99;53.38
3250;BME280;1637;42.020;23.992;2022-10-16T08:12:18;93708.13;;;20.33;50.03
3250;BME280;1637;42.020;23.992;2022-10-16T08:14:46;93702.06;;;19.69;56.94
3250;BME280;1637;42.020;23.992;2022-10-16T08:17:14;93708.56;;;19.72;52.00
3250;BME280;1637;42.020;23.992;2022-10-16T08:19:44;93708.53;;;21.10;48.12
3250;BME280;1637;42.020;23.992;2022-10-16T08:22:11;93707.16;;;21.67;46.66
3250;BME280;1637;42.020;23.992;2022-10-16T08:24:37;93698.78;;;19.62;50.68
3250;BME280;1637;42.020;23.992;2022-10-16T08:27:07;93706.00;;;20.15;50.27
3250;BME280;1637;42.020;23.992;2022-10-16T08:29:34;93697.25;;;19.61;51.07
3250;BME280;1637;42.020;23.992;2022-10-16T08:32:03;93700.78;;;19.96;50.58
3250;BME280;1637;42.020;23.992;2022-10-16T08:34:30;93697.47;;;20.26;50.66
3250;BME280;1637;42.020;23.992;2022-10-16T08:36:57;93696.16;;;20.31;49.49
3250;BME280;1637;42.020;23.992;2022-10-16T08:39:24;93696.00;;;20.47;49.47
3250;BME280;1637;42.020;23.992;2022-10-16T08:42:08;93689.94;;;17.59;57.08
3250;BME280;1637;42.020;23.992;2022-10-16T08:45:04;93688.94;;;18.88;53.30
3250;BME280;1637;42.020;23.992;2022-10-16T08:47:45;93685.63;;;19.47;51.75
3250;BME280;1637;42.020;23.992;2022-10-16T08:50:21;93687.69;;;19.56;50.99
3250;BME280;1637;42.020;23.992;2022-10-16T08:52:49;93688.97;;;19.77;50.40
3250;BME280;1637;42.020;23.992;2022-10-16T08:55:28;93676.25;;;19.36;51.32
3250;BME280;1637;42.020;23.992;2022-10-16T08:57:56;93684.53;;;19.70;49.96
3250;BME280;1637;42.020;23.992;2022-10-16T09:00:23;93678.19;;;18.97;52.64
3250;BME280;1637;42.020;23.992;2022-10-16T09:02:58;93684.50;;;20.30;50.01
3250;BME280;1637;42.020;23.992;2022-10-16T09:05:45;93679.25;;;20.14;48.69
3250;BME280;1637;42.020;23.992;2022-10-16T09:08:22;93689.59;;;20.41;48.48
3250;BME280;1637;42.020;23.992;2022-10-16T09:10:56;93673.09;;;20.22;47.92
3250;BME280;1637;42.020;23.992;2022-10-16T09:13:28;93675.50;;;19.48;48.23
3250;BME280;1637;42.020;23.992;2022-10-16T09:16:02;93676.16;;;19.77;49.14
3250;BME280;1637;42.020;23.992;2022-10-16T09:18:43;93672.09;;;18.80;50.72
3250;BME280;1637;42.020;23.992;2022-10-16T09:21:14;93676.97;;;20.00;47.55
3250;BME280;1637;42.020;23.992;2022-10-16T09:23:42;93659.44;;;20.13;47.36
3250;BME280;1637;42.020;23.992;2022-10-16T09:26:13;93662.91;;;19.29;48.38
3250;BME280;1637;42.020;23.992;2022-10-16T09:28:40;93668.56;;;19.60;47.04
3250;BME280;1637;42.020;23.992;2022-10-16T09:31:13;93663.38;;;20.00;45.92
3250;BME280;1637;42.020;23.992;2022-10-16T09:33:44;93664.63;;;19.35;48.29
3250;BME280;1637;42.020;23.992;2022-10-16T09:36:13;93663.00;;;20.57;46.40
3250;BME280;1637;42.020;23.992;2022-10-16T09:38:39;93663.34;;;20.12;46.05
3250;BME280;1637;42.020;23.992;2022-10-16T09:41:15;93656.94;;;19.46;47.87
3250;BME280;1637;42.020;23.992;2022-10-16T09:43:47;93656.00;;;17.87;50.22
3250;BME280;1637;42.020;23.992;2022-10-16T09:46:26;93653.06;;;18.68;47.35
3250;BME280;1637;42.020;23.992;2022-10-16T09:48:57;93656.28;;;19.04;46.28
3250;BME280;1637;42.020;23.992;2022-10-16T09:51:27;93648.13;;;19.04;46.85
3250;BME280;1637;42.020;23.992;2022-10-16T09:53:56;93647.25;;;18.95;47.01
3250;BME280;1637;42.020;23.992;2022-10-16T09:56:25;93648.09;;;18.92;46.86
3250;BME280;1637;42.020;23.992;2022-10-16T09:58:53;93626.91;;;18.74;47.48
3250;BME280;1637;42.020;23.992;2022-10-16T10:01:22;93649.28;;;18.78;47.43
3250;BME280;1637;42.020;23.992;2022-10-16T10:03:57;93639.22;;;18.91;47.36
3250;BME280;1637;42.020;23.992;2022-10-16T10:06:29;93648.56;;;19.15;46.60
3250;BME280;1637;42.020;23.992;2022-10-16T10:09:04;93648.44;;;19.19;46.81
3250;BME280;1637;42.020;23.992;2022-10-16T10:11:43;93647.63;;;17.65;49.97
3250;BME280;1637;42.020;23.992;2022-10-16T10:14:22;93642.38;;;18.19;48.18
3250;BME280;1637;42.020;23.992;2022-10-16T10:16:50;93643.44;;;18.79;47.41
3250;BME280;1637;42.020;23.992;2022-10-16T10:19:21;93642.44;;;18.73;46.97
3250;BME280;1637;42.020;23.992;2022-10-16T10:21:49;93633.84;;;18.75;48.09
3250;BME280;1637;42.020;23.992;2022-10-16T10:24:18;93640.16;;;18.72;46.79
3250;BME280;1637;42.020;23.992;2022-10-16T10:26:51;93622.50;;;17.93;49.13
3250;BME280;1637;42.020;23.992;2022-10-16T10:29:37;93628.38;;;17.10;51.49
3250;BME280;1637;42.020;23.992;2022-10-16T10:32:16;93635.25;;;17.64;50.69
3250;BME280;1637;42.020;23.992;2022-10-16T10:35:01;93615.00;;;17.84;49.88
3250;BME280;1637;42.020;23.992;2022-10-16T10:37:38;93620.13;;;17.66;49.60
3250;BME280;1637;42.020;23.992;2022-10-16T10:40:17;93609.72;;;17.94;49.63
3250;BME280;1637;42.020;23.992;2022-10-16T10:42:54;93606.03;;;17.71;50.45
3250;BME280;1637;42.020;23.992;2022-10-16T10:45:26;93607.38;;;18.08;48.87
3250;BME280;1637;42.020;23.992;2022-10-16T10:48:06;93605.81;;;17.95;48.71
3250;BME280;1637;42.020;23.992;2022-10-16T10:50:43;93602.47;;;18.19;49.16
3250;BME280;1637;42.020;23.992;2022-10-16T10:53:21;93592.84;;;17.73;50.01
3250;BME280;1637;42.020;23.992;2022-10-16T10:55:55;93602.19;;;18.01;48.57
3250;BME280;1637;42.020;23.992;2022-10-16T10:58:44;93595.31;;;18.26;47.21
3250;BME280;1637;42.020;23.992;2022-10-16T11:01:17;93593.56;;;18.61;46.71
3250;BME280;1637;42.020;23.992;2022-10-16T11:04:01;93597.13;;;17.87;47.06
3250;BME280;1637;42.020;23.992;2022-10-16T11:06:32;93595.44;;;18.35;44.62
3250;BME280;1637;42.020;23.992;2022-10-16T11:09:06;93593.41;;;18.39;44.09
3250;BME280;1637;42.020;23.992;2022-10-16T11:11:40;93583.88;;;18.47;44.80
3250;BME280;1637;42.020;23.992;2022-10-16T11:14:14;93593.94;;;19.01;44.98
3250;BME280;1637;42.020;23.992;2022-10-16T11:16:45;93597.25;;;19.43;43.99
3250;BME280;1637;42.020;23.992;2022-10-16T11:19:22;93593.28;;;19.09;44.38
3250;BME280;1637;42.020;23.992;2022-10-16T11:22:00;93593.38;;;18.93;44.77
3250;BME280;1637;42.020;23.992;2022-10-16T11:24:36;93573.94;;;18.69;43.72
3250;BME280;1637;42.020;23.992;2022-10-16T11:27:08;93583.81;;;18.76;44.35
3250;BME280;1637;42.020;23.992;2022-10-16T11:29:43;93572.13;;;18.37;44.40
3250;BME280;1637;42.020;23.992;2022-10-16T11:32:19;93591.84;;;18.25;42.46
3250;BME280;1637;42.020;23.992;2022-10-16T11:34:50;93597.06;;;18.32;41.65
3250;BME280;1637;42.020;23.992;2022-10-16T11:37:23;93604.16;;;18.42;44.12
3250;BME280;1637;42.020;23.992;2022-10-16T11:39:54;93589.19;;;18.50;44.76
3250;BME280;1637;42.020;23.992;2022-10-16T11:42:30;93593.47;;;18.64;45.08
3250;BME280;1637;42.020;23.992;2022-10-16T11:45:03;93588.81;;;19.03;45.00
3250;BME280;1637;42.020;23.992;2022-10-16T11:47:37;93588.72;;;18.81;44.71
3250;BME280;1637;42.020;23.992;2022-10-16T11:50:20;93602.72;;;18.92;44.20
3250;BME280;1637;42.020;23.992;2022-10-16T11:52:54;93588.38;;;18.92;44.31
3250;BME280;1637;42.020;23.992;2022-10-16T11:55:27;93585.44;;;18.61;44.48
3250;BME280;1637;42.020;23.992;2022-10-16T11:58:00;93588.41;;;18.37;43.98
3250;BME280;1637;42.020;23.992;2022-10-16T12:00:34;93585.69;;;18.37;42.45
3250;BME280;1637;42.020;23.992;2022-10-16T12:03:11;93596.09;;;18.26;43.22
3250;BME280;1637;42.020;23.992;2022-10-16T12:05:52;93588.75;;;18.52;43.06
3250;BME280;1637;42.020;23.992;2022-10-16T12:08:23;93587.03;;;18.58;42.43
3250;BME280;1637;42.020;23.992;2022-10-16T12:10:50;93591.78;;;18.41;41.74
3250;BME280;1637;42.020;23.992;2022-10-16T12:13:31;93597.09;;;18.45;42.98
3250;BME280;1637;42.020;23.992;2022-10-16T12:16:20;93592.66;;;18.51;41.00
3250;BME280;1637;42.020;23.992;2022-10-16T12:18:48;93601.56;;;18.51;41.78
3250;BME280;1637;42.020;23.992;2022-10-16T12:21:17;93601.94;;;18.66;40.30
3250;BME280;1637;42.020;23.992;2022-10-16T12:23:50;93580.69;;;18.36;39.87
3250;BME280;1637;42.020;23.992;2022-10-16T12:26:24;93600.69;;;18.13;41.60
3250;BME280;1637;42.020;23.992;2022-10-16T12:28:52;93600.91;;;18.06;42.60
3250;BME280;1637;42.020;23.992;2022-10-16T12:31:19;93609.03;;;18.06;42.01
3250;BME280;1637;42.020;23.992;2022-10-16T12:33:59;93606.94;;;17.97;42.11
3250;BME280;1637;42.020;23.992;2022-10-16T12:36:28;93606.66;;;18.08;43.76
3250;BME280;1637;42.020;23.992;2022-10-16T12:38:58;93605.69;;;18.14;41.26
3250;BME280;1637;42.020;23.992;2022-10-16T12:41:27;93613.88;;;17.98;42.17
3250;BME280;1637;42.020;23.992;2022-10-16T12:43:54;93619.28;;;17.98;42.02
3250;BME280;1637;42.020;23.992;2022-10-16T12:46:32;93618.69;;;18.07;41.43
3250;BME280;1637;42.020;23.992;2022-10-16T12:49:22;93614.34;;;18.38;42.20
3250;BME280;1637;42.020;23.992;2022-10-16T12:51:55;93617.31;;;18.57;41.85
3250;BME280;1637;42.020;23.992;2022-10-16T12:54:28;93622.13;;;18.36;39.95
3250;BME280;1637;42.020;23.992;2022-10-16T12:57:18;93624.72;;;18.27;39.82
3250;BME280;1637;42.020;23.992;2022-10-16T12:59:56;93628.91;;;17.87;39.44
3250;BME280;1637;42.020;23.992;2022-10-16T13:05:27;93633.03;;;17.91;39.79
3250;BME280;1637;42.020;23.992;2022-10-16T13:08:05;93634.84;;;17.81;39.48
3250;BME280;1637;42.020;23.992;2022-10-16T13:10:41;93624.16;;;17.74;37.65
3250;BME280;1637;42.020;23.992;2022-10-16T13:13:26;93651.09;;;17.81;35.33
3250;BME280;1637;42.020;23.992;2022-10-16T13:16:13;93653.19;;;17.58;34.86
3250;BME280;1637;42.020;23.992;2022-10-16T13:18:52;93653.13;;;17.45;34.05
3250;BME280;1637;42.020;23.992;2022-10-16T13:21:31;93654.72;;;17.42;31.87
3250;BME280;1637;42.020;23.992;2022-10-16T13:24:05;93667.50;;;17.42;31.09
3250;BME280;1637;42.020;23.992;2022-10-16T13:26:43;93661.66;;;17.43;31.17
3250;BME280;1637;42.020;23.992;2022-10-16T13:29:13;93649.47;;;17.19;30.51
3250;BME280;1637;42.020;23.992;2022-10-16T13:31:42;93655.44;;;17.27;31.20